sensor_id;sensor_type;location;lat;lon;timestamp;pressure;altitude;pressure_sealevel;temperature;humidity
14041;BME280;7095;51.388;6.196;2022-12-18T00:01:34;55625.00;;;-145.32;100.00
14041;BME280;7095;51.388;6.196;2022-12-18T00:04:06;55615.06;;;-145.32;100.00
14041;BME280;7095;51.388;6.196;2022-12-18T00:06:36;55595.16;;;-145.32;100.00
14041;BME280;7095;51.388;6.196;2022-12-18T00:09:06;55551.41;;;-145.32;100.00
14041;BME280;7095;51.388;6.196;2022-12-18T00:11:34;55569.31;;;-145.32;100.00
14041;BME280;7095;51.388;6.196;2022-12-18T00:14:03;55656.84;;;-145.32;100.00
14041;BME280;7095;51.388;6.196;2022-12-18T00:16:32;55583.22;;;-145.32;100.00
14041;BME280;7095;51.388;6.196;2022-12-18T00:19:05;55583.22;;;-145.32;100.00
14041;BME280;7095;51.388;6.196;2022-12-18T00:21:34;55607.09;;;-145.32;100.00
14041;BME280;7095;51.388;6.196;2022-12-18T00:24:03;55559.34;;;-145.32;100.00
14041;BME280;7095;51.388;6.196;2022-12-18T00:26:34;55559.34;;;-145.32;100.00
14041;BME280;7095;51.388;6.196;2022-12-18T00:29:06;55475.81;;;-145.32;100.00
14041;BME280;7095;51.388;6.196;2022-12-18T00:31:36;55539.47;;;-145.32;100.00
14041;BME280;7095;51.388;6.196;2022-12-18T00:34:05;55545.44;;;-145.32;100.00
14041;BME280;7095;51.388;6.196;2022-12-18T00:36:34;55529.53;;;-145.32;100.00
14041;BME280;7095;51.388;6.196;2022-12-18T00:39:05;55555.38;;;-145.32;100.00
14041;BME280;7095;51.388;6.196;2022-12-18T00:41:34;55603.13;;;-145.32;100.00
14041;BME280;7095;51.388;6.196;2022-12-18T00:44:21;55549.41;;;-145.32;100.00
14041;BME280;7095;51.388;6.196;2022-12-18T00:46:50;55567.31;;;-145.32;100.00
14041;BME280;7095;51.388;6.196;2022-12-18T00:49:20;55481.78;;;-145.32;100.00
14041;BME280;7095;51.388;6.196;2022-12-18T00:51:49;55527.53;;;-145.32;100.00
14041;BME280;7095;51.388;6.196;2022-12-18T00:54:21;55587.22;;;-145.32;100.00
14041;BME280;7095;51.388;6.196;2022-12-18T00:56:51;55451.94;;;-145.32;100.00
14041;BME280;7095;51.388;6.196;2022-12-18T00:59:20;55491.72;;;-145.32;100.00
14041;BME280;7095;51.388;6.196;2022-12-18T01:01:50;55459.91;;;-145.32;100.00
14041;BME280;7095;51.388;6.196;2022-12-18T01:04:19;55410.16;;;-145.32;100.00
14041;BME280;7095;51.388;6.196;2022-12-18T01:06:48;55451.94;;;-145.32;100.00
14041;BME280;7095;51.388;6.196;2022-12-18T01:09:17;55479.78;;;-145.32;100.00
14041;BME280;7095;51.388;6.196;2022-12-18T01:11:45;55495.69;;;-145.32;100.00
14041;BME280;7095;51.388;6.196;2022-12-18T01:14:15;55457.91;;;-145.32;100.00
14041;BME280;7095;51.388;6.196;2022-12-18T01:16:44;55491.72;;;-145.32;100.00
14041;BME280;7095;51.388;6.196;2022-12-18T01:19:12;55479.78;;;-145.32;100.00
14041;BME280;7095;51.388;6.196;2022-12-18T01:21:41;55451.94;;;-145.32;100.00
14041;BME280;7095;51.388;6.196;2022-12-18T01:24:11;55400.22;;;-145.32;100.00
14041;BME280;7095;51.388;6.196;2022-12-18T01:26:41;55440.00;;;-145.32;100.00
14041;BME280;7095;51.388;6.196;2022-12-18T01:29:09;55416.13;;;-145.32;100.00
14041;BME280;7095;51.388;6.196;2022-12-18T01:31:39;55412.16;;;-145.32;100.00
14041;BME280;7095;51.388;6.196;2022-12-18T01:34:09;55356.47;;;-145.32;100.00
14041;BME280;7095;51.388;6.196;2022-12-18T01:36:38;55418.13;;;-145.32;100.00
14041;BME280;7095;51.388;6.196;2022-12-18T01:39:11;55364.41;;;-145.32;100.00
14041;BME280;7095;51.388;6.196;2022-12-18T01:41:41;55332.59;;;-145.32;100.00
14041;BME280;7095;51.388;6.196;2022-12-18T01:45:08;55348.50;;;-145.32;100.00
14041;BME280;7095;51.388;6.196;2022-12-18T01:47:53;55378.34;;;-145.32;100.00
14041;BME280;7095;51.388;6.196;2022-12-18T01:50:24;55400.22;;;-145.32;100.00
14041;BME280;7095;51.388;6.196;2022-12-18T01:52:56;55398.22;;;-145.32;100.00
14041;BME280;7095;51.388;6.196;2022-12-18T01:55:29;55344.53;;;-145.32;100.00
14041;BME280;7095;51.388;6.196;2022-12-18T01:58:00;55418.13;;;-145.32;100.00
14041;BME280;7095;51.388;6.196;2022-12-18T02:00:29;55336.56;;;-145.32;100.00
14041;BME280;7095;51.388;6.196;2022-12-18T02:03:00;55312.69;;;-145.32;100.00
14041;BME280;7095;51.388;6.196;2022-12-18T02:05:40;55302.75;;;-145.32;100.00
14041;BME280;7095;51.388;6.196;2022-12-18T02:08:16;55298.78;;;-145.32;100.00
14041;BME280;7095;51.388;6.196;2022-12-18T02:10:54;55284.84;;;-145.32;100.00
14041;BME280;7095;51.388;6.196;2022-12-18T02:13:32;55296.78;;;-145.32;100.00
14041;BME280;7095;51.388;6.196;2022-12-18T02:16:13;55257.00;;;-145.32;100.00
14041;BME280;7095;51.388;6.196;2022-12-18T02:18:51;55247.06;;;-145.32;100.00
14041;BME280;7095;51.388;6.196;2022-12-18T02:21:30;55280.88;;;-145.32;100.00
14041;BME280;7095;51.388;6.196;2022-12-18T02:24:12;55306.72;;;-145.32;100.00
14041;BME280;7095;51.388;6.196;2022-12-18T02:26:46;55350.50;;;-145.32;100.00
14041;BME280;7095;51.388;6.196;2022-12-18T02:29:22;55324.63;;;-145.32;100.00
14041;BME280;7095;51.388;6.196;2022-12-18T02:31:56;55314.69;;;-145.32;100.00
14041;BME280;7095;51.388;6.196;2022-12-18T02:34:31;55320.66;;;-145.32;100.00
14041;BME280;7095;51.388;6.196;2022-12-18T02:37:04;55350.50;;;-145.32;100.00
14041;BME280;7095;51.388;6.196;2022-12-18T02:39:35;55340.56;;;-145.32;100.00
14041;BME280;7095;51.388;6.196;2022-12-18T02:42:07;55356.47;;;-145.32;100.00
14041;BME280;7095;51.388;6.196;2022-12-18T02:44:42;55410.16;;;-145.32;100.00
14041;BME280;7095;51.388;6.196;2022-12-18T02:47:15;55412.16;;;-145.32;100.00
14041;BME280;7095;51.388;6.196;2022-12-18T02:49:51;55390.28;;;-145.32;100.00
14041;BME280;7095;51.388;6.196;2022-12-18T02:52:28;55344.53;;;-145.32;100.00
14041;BME280;7095;51.388;6.196;2022-12-18T02:55:12;55312.69;;;-145.32;100.00
14041;BME280;7095;51.388;6.196;2022-12-18T02:57:49;55328.63;;;-145.32;100.00
14041;BME280;7095;51.388;6.196;2022-12-18T03:00:28;55334.59;;;-145.32;100.00
14041;BME280;7095;51.388;6.196;2022-12-18T03:03:05;55260.97;;;-145.32;100.00
14041;BME280;7095;51.388;6.196;2022-12-18T03:05:39;55308.72;;;-145.32;100.00
14041;BME280;7095;51.388;6.196;2022-12-18T03:08:14;55340.56;;;-145.32;100.00
14041;BME280;7095;51.388;6.196;2022-12-18T03:10:51;55378.34;;;-145.32;100.00
14041;BME280;7095;51.388;6.196;2022-12-18T03:13:27;55348.50;;;-145.32;100.00
14041;BME280;7095;51.388;6.196;2022-12-18T03:16:00;55366.41;;;-145.32;100.00
14041;BME280;7095;51.388;6.196;2022-12-18T03:18:34;55306.72;;;-145.32;100.00
14041;BME280;7095;51.388;6.196;2022-12-18T03:21:06;55348.50;;;-145.32;100.00
14041;BME280;7095;51.388;6.196;2022-12-18T03:23:40;55370.38;;;-145.32;100.00
14041;BME280;7095;51.388;6.196;2022-12-18T03:26:16;55386.28;;;-145.32;100.00
14041;BME280;7095;51.388;6.196;2022-12-18T03:28:49;55400.22;;;-145.32;100.00
14041;BME280;7095;51.388;6.196;2022-12-18T03:31:22;55432.06;;;-145.32;100.00
14041;BME280;7095;51.388;6.196;2022-12-18T03:33:53;55440.00;;;-145.32;100.00
14041;BME280;7095;51.388;6.196;2022-12-18T03:36:29;55455.91;;;-145.32;100.00
14041;BME280;7095;51.388;6.196;2022-12-18T03:38:58;55475.81;;;-145.32;100.00
14041;BME280;7095;51.388;6.196;2022-12-18T03:41:31;55445.97;;;-145.32;100.00
14041;BME280;7095;51.388;6.196;2022-12-18T03:44:27;55420.13;;;-145.32;100.00
14041;BME280;7095;51.388;6.196;2022-12-18T03:47:04;55404.19;;;-145.32;100.00
14041;BME280;7095;51.388;6.196;2022-12-18T03:49:40;55449.94;;;-145.32;100.00
14041;BME280;7095;51.388;6.196;2022-12-18T03:52:17;55479.78;;;-145.32;100.00
14041;BME280;7095;51.388;6.196;2022-12-18T03:54:48;55451.94;;;-145.32;100.00
14041;BME280;7095;51.388;6.196;2022-12-18T03:57:20;55481.78;;;-145.32;100.00
14041;BME280;7095;51.388;6.196;2022-12-18T03:59:56;55495.69;;;-145.32;100.00
14041;BME280;7095;51.388;6.196;2022-12-18T04:02:30;55515.59;;;-145.32;100.00
14041;BME280;7095;51.388;6.196;2022-12-18T04:05:04;55459.91;;;-145.32;100.00
14041;BME280;7095;51.388;6.196;2022-12-18T04:07:37;55440.00;;;-145.32;100.00
14041;BME280;7095;51.388;6.196;2022-12-18T04:10:09;55503.66;;;-145.32;100.00
14041;BME280;7095;51.388;6.196;2022-12-18T04:12:41;55473.81;;;-145.32;100.00
14041;BME280;7095;51.388;6.196;2022-12-18T04:15:13;55443.97;;;-145.32;100.00
14041;BME280;7095;51.388;6.196;2022-12-18T04:17:47;55471.84;;;-145.32;100.00
14041;BME280;7095;51.388;6.196;2022-12-18T04:20:20;55489.75;;;-145.32;100.00
14041;BME280;7095;51.388;6.196;2022-12-18T04:22:49;55511.63;;;-145.32;100.00
14041;BME280;7095;51.388;6.196;2022-12-18T04:25:19;55479.78;;;-145.32;100.00
14041;BME280;7095;51.388;6.196;2022-12-18T04:28:05;55483.78;;;-145.32;100.00
14041;BME280;7095;51.388;6.196;2022-12-18T04:30:36;55442.00;;;-145.32;100.00
14041;BME280;7095;51.388;6.196;2022-12-18T04:33:08;55489.75;;;-145.32;100.00
14041;BME280;7095;51.388;6.196;2022-12-18T04:35:38;55467.84;;;-145.32;100.00
14041;BME280;7095;51.388;6.196;2022-12-18T04:38:07;55475.81;;;-145.32;100.00
14041;BME280;7095;51.388;6.196;2022-12-18T04:40:37;55507.63;;;-145.32;100.00
14041;BME280;7095;51.388;6.196;2022-12-18T04:43:15;55432.06;;;-145.32;100.00
14041;BME280;7095;51.388;6.196;2022-12-18T04:45:45;55445.97;;;-145.32;100.00
14041;BME280;7095;51.388;6.196;2022-12-18T04:48:14;55457.91;;;-145.32;100.00
14041;BME280;7095;51.388;6.196;2022-12-18T04:50:43;55471.84;;;-145.32;100.00
14041;BME280;7095;51.388;6.196;2022-12-18T04:53:12;55424.09;;;-145.32;100.00
14041;BME280;7095;51.388;6.196;2022-12-18T04:55:40;55440.00;;;-145.32;100.00
14041;BME280;7095;51.388;6.196;2022-12-18T04:58:09;55416.13;;;-145.32;100.00
14041;BME280;7095;51.388;6.196;2022-12-18T05:00:37;55440.00;;;-145.32;100.00
14041;BME280;7095;51.388;6.196;2022-12-18T05:03:08;55392.25;;;-145.32;100.00
14041;BME280;7095;51.388;6.196;2022-12-18T05:05:36;55420.13;;;-145.32;100.00
14041;BME280;7095;51.388;6.196;2022-12-18T05:08:05;55443.97;;;-145.32;100.00
14041;BME280;7095;51.388;6.196;2022-12-18T05:10:33;55376.34;;;-145.32;100.00
14041;BME280;7095;51.388;6.196;2022-12-18T05:13:04;55398.22;;;-145.32;100.00
14041;BME280;7095;51.388;6.196;2022-12-18T05:15:33;55388.28;;;-145.32;100.00
14041;BME280;7095;51.388;6.196;2022-12-18T05:18:03;55388.28;;;-145.32;100.00
14041;BME280;7095;51.388;6.196;2022-12-18T05:20:33;55340.56;;;-145.32;100.00
14041;BME280;7095;51.388;6.196;2022-12-18T05:23:02;55350.50;;;-145.32;100.00
14041;BME280;7095;51.388;6.196;2022-12-18T05:25:31;55342.53;;;-145.32;100.00
14041;BME280;7095;51.388;6.196;2022-12-18T05:27:59;55324.63;;;-145.32;100.00
14041;BME280;7095;51.388;6.196;2022-12-18T05:30:28;55366.41;;;-145.32;100.00
14041;BME280;7095;51.388;6.196;2022-12-18T05:32:57;55368.41;;;-145.32;100.00
14041;BME280;7095;51.388;6.196;2022-12-18T05:35:25;55352.47;;;-145.32;100.00
14041;BME280;7095;51.388;6.196;2022-12-18T05:37:56;55288.84;;;-145.32;100.00
14041;BME280;7095;51.388;6.196;2022-12-18T05:40:25;55314.69;;;-145.32;100.00
14041;BME280;7095;51.388;6.196;2022-12-18T05:42:54;55334.59;;;-145.32;100.00
14041;BME280;7095;51.388;6.196;2022-12-18T05:45:22;55300.75;;;-145.32;100.00
14041;BME280;7095;51.388;6.196;2022-12-18T05:47:51;55348.50;;;-145.32;100.00
14041;BME280;7095;51.388;6.196;2022-12-18T05:50:19;55318.66;;;-145.32;100.00
14041;BME280;7095;51.388;6.196;2022-12-18T05:52:48;55334.59;;;-145.32;100.00
14041;BME280;7095;51.388;6.196;2022-12-18T05:55:18;55352.47;;;-145.32;100.00
14041;BME280;7095;51.388;6.196;2022-12-18T05:57:47;55334.59;;;-145.32;100.00
14041;BME280;7095;51.388;6.196;2022-12-18T06:00:16;55320.66;;;-145.32;100.00
14041;BME280;7095;51.388;6.196;2022-12-18T06:02:46;55340.56;;;-145.32;100.00
14041;BME280;7095;51.388;6.196;2022-12-18T06:05:16;55310.72;;;-145.32;100.00
14041;BME280;7095;51.388;6.196;2022-12-18T06:07:44;55320.66;;;-145.32;100.00
14041;BME280;7095;51.388;6.196;2022-12-18T06:10:12;55302.75;;;-145.32;100.00
14041;BME280;7095;51.388;6.196;2022-12-18T06:12:43;55320.66;;;-145.32;100.00
14041;BME280;7095;51.388;6.196;2022-12-18T06:15:13;55308.72;;;-145.32;100.00
14041;BME280;7095;51.388;6.196;2022-12-18T06:17:42;55304.75;;;-145.32;100.00
14041;BME280;7095;51.388;6.196;2022-12-18T06:20:12;55336.56;;;-145.32;100.00
14041;BME280;7095;51.388;6.196;2022-12-18T06:22:41;55284.84;;;-145.32;100.00
14041;BME280;7095;51.388;6.196;2022-12-18T06:25:10;55316.69;;;-145.32;100.00
14041;BME280;7095;51.388;6.196;2022-12-18T06:27:39;55260.97;;;-145.32;100.00
14041;BME280;7095;51.388;6.196;2022-12-18T06:30:11;55272.91;;;-145.32;100.00
14041;BME280;7095;51.388;6.196;2022-12-18T06:32:40;55249.06;;;-145.32;100.00
14041;BME280;7095;51.388;6.196;2022-12-18T06:35:09;55266.94;;;-145.32;100.00
14041;BME280;7095;51.388;6.196;2022-12-18T06:37:38;55259.00;;;-145.32;100.00
14041;BME280;7095;51.388;6.196;2022-12-18T06:40:07;55233.13;;;-145.32;100.00
14041;BME280;7095;51.388;6.196;2022-12-18T06:42:36;55213.25;;;-145.32;100.00
14041;BME280;7095;51.388;6.196;2022-12-18T06:45:05;55245.06;;;-145.32;100.00
14041;BME280;7095;51.388;6.196;2022-12-18T06:47:35;55173.47;;;-145.32;100.00
14041;BME280;7095;51.388;6.196;2022-12-18T06:50:05;55193.34;;;-145.32;100.00
14041;BME280;7095;51.388;6.196;2022-12-18T06:52:34;55189.38;;;-145.32;100.00
14041;BME280;7095;51.388;6.196;2022-12-18T06:55:05;55209.25;;;-145.32;100.00
14041;BME280;7095;51.388;6.196;2022-12-18T06:57:34;55197.34;;;-145.32;100.00
14041;BME280;7095;51.388;6.196;2022-12-18T07:00:03;55197.34;;;-145.32;100.00
14041;BME280;7095;51.388;6.196;2022-12-18T07:02:36;55187.38;;;-145.32;100.00
14041;BME280;7095;51.388;6.196;2022-12-18T07:05:06;55185.41;;;-145.32;100.00
14041;BME280;7095;51.388;6.196;2022-12-18T07:07:37;55231.16;;;-145.32;100.00
14041;BME280;7095;51.388;6.196;2022-12-18T07:10:06;55229.16;;;-145.32;100.00
14041;BME280;7095;51.388;6.196;2022-12-18T07:12:34;55211.25;;;-145.32;100.00
14041;BME280;7095;51.388;6.196;2022-12-18T07:15:04;55215.22;;;-145.32;100.00
14041;BME280;7095;51.388;6.196;2022-12-18T07:17:33;55197.34;;;-145.32;100.00
14041;BME280;7095;51.388;6.196;2022-12-18T07:20:04;55167.50;;;-145.32;100.00
14041;BME280;7095;51.388;6.196;2022-12-18T07:22:33;55219.22;;;-145.32;100.00
14041;BME280;7095;51.388;6.196;2022-12-18T07:25:02;55191.38;;;-145.32;100.00
14041;BME280;7095;51.388;6.196;2022-12-18T07:27:31;55195.34;;;-145.32;100.00
14041;BME280;7095;51.388;6.196;2022-12-18T07:30:00;55195.34;;;-145.32;100.00
14041;BME280;7095;51.388;6.196;2022-12-18T07:32:30;55191.38;;;-145.32;100.00
14041;BME280;7095;51.388;6.196;2022-12-18T07:34:58;55171.47;;;-145.32;100.00
14041;BME280;7095;51.388;6.196;2022-12-18T07:37:29;55137.66;;;-145.32;100.00
14041;BME280;7095;51.388;6.196;2022-12-18T07:39:57;55143.63;;;-145.32;100.00
14041;BME280;7095;51.388;6.196;2022-12-18T07:42:26;55171.47;;;-145.32;100.00
14041;BME280;7095;51.388;6.196;2022-12-18T07:45:03;55165.50;;;-145.32;100.00
14041;BME280;7095;51.388;6.196;2022-12-18T07:47:34;55131.69;;;-145.32;100.00
14041;BME280;7095;51.388;6.196;2022-12-18T07:50:03;55149.59;;;-145.32;100.00
14041;BME280;7095;51.388;6.196;2022-12-18T07:52:33;55165.50;;;-145.32;100.00
14041;BME280;7095;51.388;6.196;2022-12-18T07:55:04;55165.50;;;-145.32;100.00
14041;BME280;7095;51.388;6.196;2022-12-18T07:57:33;55129.69;;;-145.32;100.00
14041;BME280;7095;51.388;6.196;2022-12-18T08:00:22;55137.66;;;-145.32;100.00
14041;BME280;7095;51.388;6.196;2022-12-18T08:02:51;55185.41;;;-145.32;100.00
14041;BME280;7095;51.388;6.196;2022-12-18T08:05:21;55165.50;;;-145.32;100.00
14041;BME280;7095;51.388;6.196;2022-12-18T08:07:51;55121.75;;;-145.32;100.00
14041;BME280;7095;51.388;6.196;2022-12-18T08:10:20;55159.53;;;-145.32;100.00
14041;BME280;7095;51.388;6.196;2022-12-18T08:12:50;55141.63;;;-145.32;100.00
14041;BME280;7095;51.388;6.196;2022-12-18T08:15:19;55155.56;;;-145.32;100.00
14041;BME280;7095;51.388;6.196;2022-12-18T08:17:47;55165.50;;;-145.32;100.00
14041;BME280;7095;51.388;6.196;2022-12-18T08:20:16;55161.53;;;-145.32;100.00
14041;BME280;7095;51.388;6.196;2022-12-18T08:22:45;55139.66;;;-145.32;100.00
14041;BME280;7095;51.388;6.196;2022-12-18T08:25:15;55185.41;;;-145.32;100.00
14041;BME280;7095;51.388;6.196;2022-12-18T08:27:44;55173.47;;;-145.32;100.00
14041;BME280;7095;51.388;6.196;2022-12-18T08:30:13;55185.41;;;-145.32;100.00
14041;BME280;7095;51.388;6.196;2022-12-18T08:32:42;55177.44;;;-145.32;100.00
14041;BME280;7095;51.388;6.196;2022-12-18T08:35:10;55169.50;;;-145.32;100.00
14041;BME280;7095;51.388;6.196;2022-12-18T08:37:44;55175.44;;;-145.32;100.00
14041;BME280;7095;51.388;6.196;2022-12-18T08:40:14;55179.44;;;-145.32;100.00
14041;BME280;7095;51.388;6.196;2022-12-18T08:42:43;55241.09;;;-145.32;100.00
14041;BME280;7095;51.388;6.196;2022-12-18T08:45:29;55191.38;;;-145.32;100.00
14041;BME280;7095;51.388;6.196;2022-12-18T08:47:58;55181.41;;;-145.32;100.00
14041;BME280;7095;51.388;6.196;2022-12-18T08:50:27;55133.69;;;-145.32;100.00
14041;BME280;7095;51.388;6.196;2022-12-18T08:52:55;55207.28;;;-145.32;100.00
14041;BME280;7095;51.388;6.196;2022-12-18T08:55:26;55201.31;;;-145.32;100.00
14041;BME280;7095;51.388;6.196;2022-12-18T08:57:55;55173.47;;;-145.32;100.00
14041;BME280;7095;51.388;6.196;2022-12-18T09:00:23;55121.75;;;-145.32;100.00
14041;BME280;7095;51.388;6.196;2022-12-18T09:02:52;55117.78;;;-145.32;100.00
14041;BME280;7095;51.388;6.196;2022-12-18T09:05:21;55143.63;;;-145.32;100.00
14041;BME280;7095;51.388;6.196;2022-12-18T09:07:51;55149.59;;;-145.32;100.00
14041;BME280;7095;51.388;6.196;2022-12-18T09:10:19;55133.69;;;-145.32;100.00
14041;BME280;7095;51.388;6.196;2022-12-18T09:12:50;55066.06;;;-145.32;100.00
14041;BME280;7095;51.388;6.196;2022-12-18T09:15:19;55109.81;;;-145.32;100.00
14041;BME280;7095;51.388;6.196;2022-12-18T09:17:48;55076.00;;;-145.32;100.00
14041;BME280;7095;51.388;6.196;2022-12-18T09:20:17;55157.56;;;-145.32;100.00
14041;BME280;7095;51.388;6.196;2022-12-18T09:22:45;55123.75;;;-145.32;100.00
14041;BME280;7095;51.388;6.196;2022-12-18T09:25:14;55159.53;;;-145.32;100.00
14041;BME280;7095;51.388;6.196;2022-12-18T09:27:43;55177.44;;;-145.32;100.00
14041;BME280;7095;51.388;6.196;2022-12-18T09:30:16;55149.59;;;-145.32;100.00
14041;BME280;7095;51.388;6.196;2022-12-18T09:32:45;55129.69;;;-145.32;100.00
14041;BME280;7095;51.388;6.196;2022-12-18T09:35:16;55143.63;;;-145.32;100.00
14041;BME280;7095;51.388;6.196;2022-12-18T09:37:45;55129.69;;;-145.32;100.00
14041;BME280;7095;51.388;6.196;2022-12-18T09:40:14;55054.13;;;-145.32;100.00
14041;BME280;7095;51.388;6.196;2022-12-18T09:42:48;55089.94;;;-145.32;100.00
14041;BME280;7095;51.388;6.196;2022-12-18T09:45:22;55101.84;;;-145.32;100.00
14041;BME280;7095;51.388;6.196;2022-12-18T09:47:52;55087.94;;;-145.32;100.00
14041;BME280;7095;51.388;6.196;2022-12-18T09:50:28;55087.94;;;-145.32;100.00
14041;BME280;7095;51.388;6.196;2022-12-18T09:53:02;55137.66;;;-145.32;100.00
14041;BME280;7095;51.388;6.196;2022-12-18T09:55:36;55169.50;;;-145.32;100.00
14041;BME280;7095;51.388;6.196;2022-12-18T09:58:13;55123.75;;;-145.32;100.00
14041;BME280;7095;51.388;6.196;2022-12-18T10:00:45;55034.22;;;-145.32;100.00
14041;BME280;7095;51.388;6.196;2022-12-18T10:03:14;55048.16;;;-145.32;100.00
14041;BME280;7095;51.388;6.196;2022-12-18T10:05:51;55040.19;;;-145.32;100.00
14041;BME280;7095;51.388;6.196;2022-12-18T10:08:28;55107.81;;;-145.32;100.00
14041;BME280;7095;51.388;6.196;2022-12-18T10:11:16;55139.66;;;-145.32;100.00
14041;BME280;7095;51.388;6.196;2022-12-18T10:13:52;55173.47;;;-145.32;100.00
14041;BME280;7095;51.388;6.196;2022-12-18T10:16:34;55083.97;;;-145.32;100.00
14041;BME280;7095;51.388;6.196;2022-12-18T10:19:18;55044.19;;;-145.32;100.00
14041;BME280;7095;51.388;6.196;2022-12-18T10:21:54;55087.94;;;-145.32;100.00
14041;BME280;7095;51.388;6.196;2022-12-18T10:24:32;55105.84;;;-145.32;100.00
14041;BME280;7095;51.388;6.196;2022-12-18T10:27:11;55085.94;;;-145.32;100.00
14041;BME280;7095;51.388;6.196;2022-12-18T10:29:42;55030.25;;;-145.32;100.00
14041;BME280;7095;51.388;6.196;2022-12-18T10:32:15;55163.53;;;-145.32;100.00
14041;BME280;7095;51.388;6.196;2022-12-18T10:34:46;55012.34;;;-145.32;100.00
14041;BME280;7095;51.388;6.196;2022-12-18T10:37:23;55024.28;;;-145.32;100.00
14041;BME280;7095;51.388;6.196;2022-12-18T10:40:07;54958.66;;;-145.32;100.00
14041;BME280;7095;51.388;6.196;2022-12-18T10:42:44;54994.47;;;-145.32;100.00
14041;BME280;7095;51.388;6.196;2022-12-18T10:45:14;54889.03;;;-145.32;100.00
14041;BME280;7095;51.388;6.196;2022-12-18T10:47:47;54916.88;;;-145.32;100.00
14041;BME280;7095;51.388;6.196;2022-12-18T10:50:25;54883.06;;;-145.32;100.00
14041;BME280;7095;51.388;6.196;2022-12-18T10:53:19;54895.00;;;-145.32;100.00
14041;BME280;7095;51.388;6.196;2022-12-18T10:55:52;54883.06;;;-145.32;100.00
14041;BME280;7095;51.388;6.196;2022-12-18T10:58:27;54745.84;;;-145.32;100.00
14041;BME280;7095;51.388;6.196;2022-12-18T11:01:05;54829.38;;;-145.32;100.00
14041;BME280;7095;51.388;6.196;2022-12-18T11:03:38;54942.75;;;-145.32;100.00
14041;BME280;7095;51.388;6.196;2022-12-18T11:06:09;54869.16;;;-145.32;100.00
14041;BME280;7095;51.388;6.196;2022-12-18T11:08:39;54879.09;;;-145.32;100.00
14041;BME280;7095;51.388;6.196;2022-12-18T11:11:19;54847.28;;;-145.32;100.00
14041;BME280;7095;51.388;6.196;2022-12-18T11:13:57;54906.94;;;-145.32;100.00
14041;BME280;7095;51.388;6.196;2022-12-18T11:16:28;54845.28;;;-145.32;100.00
14041;BME280;7095;51.388;6.196;2022-12-18T11:19:13;54877.09;;;-145.32;100.00
14041;BME280;7095;51.388;6.196;2022-12-18T11:21:43;54829.38;;;-145.32;100.00
14041;BME280;7095;51.388;6.196;2022-12-18T11:24:20;54743.84;;;-145.32;100.00
14041;BME280;7095;51.388;6.196;2022-12-18T11:26:51;54747.84;;;-145.32;100.00
14041;BME280;7095;51.388;6.196;2022-12-18T11:29:32;54755.78;;;-145.32;100.00
14041;BME280;7095;51.388;6.196;2022-12-18T11:32:24;54725.97;;;-145.32;100.00
14041;BME280;7095;51.388;6.196;2022-12-18T11:35:01;54688.16;;;-145.32;100.00
14041;BME280;7095;51.388;6.196;2022-12-18T11:37:31;54680.22;;;-145.32;100.00
14041;BME280;7095;51.388;6.196;2022-12-18T11:40:06;54765.72;;;-145.32;100.00
14041;BME280;7095;51.388;6.196;2022-12-18T11:42:41;54676.25;;;-145.32;100.00
14041;BME280;7095;51.388;6.196;2022-12-18T11:45:30;54600.66;;;-145.32;100.00
14041;BME280;7095;51.388;6.196;2022-12-18T11:48:05;54620.56;;;-145.32;100.00
14041;BME280;7095;51.388;6.196;2022-12-18T11:50:48;54612.59;;;-145.32;100.00
14041;BME280;7095;51.388;6.196;2022-12-18T11:53:18;54614.59;;;-145.32;100.00
14041;BME280;7095;51.388;6.196;2022-12-18T11:55:54;54624.53;;;-145.32;100.00
14041;BME280;7095;51.388;6.196;2022-12-18T11:58:40;54600.66;;;-145.32;100.00
14041;BME280;7095;51.388;6.196;2022-12-18T12:01:19;54616.56;;;-145.32;100.00
14041;BME280;7095;51.388;6.196;2022-12-18T12:04:56;54630.50;;;-145.32;100.00
14041;BME280;7095;51.388;6.196;2022-12-18T12:07:41;54614.59;;;-145.32;100.00
14041;BME280;7095;51.388;6.196;2022-12-18T12:10:29;54624.53;;;-145.32;100.00
14041;BME280;7095;51.388;6.196;2022-12-18T12:13:20;54612.59;;;-145.32;100.00
14041;BME280;7095;51.388;6.196;2022-12-18T12:16:00;54592.72;;;-145.32;100.00
14041;BME280;7095;51.388;6.196;2022-12-18T12:18:40;54576.81;;;-145.32;100.00
14041;BME280;7095;51.388;6.196;2022-12-18T12:21:19;54616.56;;;-145.32;100.00
14041;BME280;7095;51.388;6.196;2022-12-18T12:23:57;54592.72;;;-145.32;100.00
14041;BME280;7095;51.388;6.196;2022-12-18T12:26:34;54582.78;;;-145.32;100.00
14041;BME280;7095;51.388;6.196;2022-12-18T12:29:25;54594.69;;;-145.32;100.00
14041;BME280;7095;51.388;6.196;2022-12-18T12:32:05;54543.00;;;-145.32;100.00
14041;BME280;7095;51.388;6.196;2022-12-18T12:34:42;54552.94;;;-145.32;100.00
14041;BME280;7095;51.388;6.196;2022-12-18T12:37:24;54578.78;;;-145.32;100.00
14041;BME280;7095;51.388;6.196;2022-12-18T12:40:00;54546.97;;;-145.32;100.00
14041;BME280;7095;51.388;6.196;2022-12-18T12:42:55;54535.03;;;-145.32;100.00
14041;BME280;7095;51.388;6.196;2022-12-18T12:45:47;54541.00;;;-145.32;100.00
14041;BME280;7095;51.388;6.196;2022-12-18T12:48:23;54552.94;;;-145.32;100.00
14041;BME280;7095;51.388;6.196;2022-12-18T12:50:57;54515.16;;;-145.32;100.00
14041;BME280;7095;51.388;6.196;2022-12-18T12:53:33;54554.94;;;-145.32;100.00
14041;BME280;7095;51.388;6.196;2022-12-18T12:56:06;54513.16;;;-145.32;100.00
14041;BME280;7095;51.388;6.196;2022-12-18T12:58:44;54461.47;;;-145.32;100.00
14041;BME280;7095;51.388;6.196;2022-12-18T13:01:23;54481.34;;;-145.32;100.00
14041;BME280;7095;51.388;6.196;2022-12-18T13:04:00;54501.22;;;-145.32;100.00
14041;BME280;7095;51.388;6.196;2022-12-18T13:06:39;54455.50;;;-145.32;100.00
14041;BME280;7095;51.388;6.196;2022-12-18T13:09:12;54487.31;;;-145.32;100.00
14041;BME280;7095;51.388;6.196;2022-12-18T13:11:45;54485.31;;;-145.32;100.00